createdAt,value
2022-11-13T00:02:21.019Z,16.98
2022-11-13T00:05:40.883Z,16.99
2022-11-13T00:09:00.764Z,16.96
2022-11-13T00:12:20.575Z,16.95
2022-11-13T00:15:40.390Z,16.95
2022-11-13T00:19:00.421Z,16.94
2022-11-13T00:22:20.751Z,16.95
2022-11-13T00:25:40.728Z,16.95
2022-11-13T00:29:02.736Z,16.94
2022-11-13T00:32:22.827Z,16.93
2022-11-13T00:35:42.808Z,16.92
2022-11-13T00:39:02.943Z,16.92
2022-11-13T00:42:23.188Z,16.90
2022-11-13T00:45:43.178Z,16.89
2022-11-13T00:49:03.648Z,16.89
2022-11-13T00:52:23.685Z,16.88
2022-11-13T00:55:44.516Z,16.88
2022-11-13T00:59:04.744Z,16.86
2022-11-13T01:02:24.679Z,16.85
2022-11-13T01:05:46.122Z,16.85
2022-11-13T01:09:06.374Z,16.85
2022-11-13T01:12:26.412Z,16.83
2022-11-13T01:15:46.721Z,16.83
2022-11-13T01:19:07.019Z,16.83
2022-11-13T01:22:27.295Z,16.81
2022-11-13T01:25:47.519Z,16.81
2022-11-13T01:29:07.470Z,16.80
2022-11-13T01:32:27.421Z,16.79
2022-11-13T01:35:47.729Z,16.78
2022-11-13T01:39:10.752Z,16.78
2022-11-13T01:42:33.425Z,16.79
2022-11-13T01:45:59.512Z,16.78
2022-11-13T01:49:31.980Z,16.77
2022-11-13T01:52:52.251Z,16.76
2022-11-13T01:56:13.166Z,16.76
2022-11-13T01:59:40.838Z,16.76
2022-11-13T02:03:00.562Z,16.73
2022-11-13T02:06:21.891Z,16.70
2022-11-13T02:09:48.197Z,16.71
2022-11-13T02:13:08.068Z,16.69
2022-11-13T02:16:31.736Z,16.68
2022-11-13T02:19:56.504Z,16.66
2022-11-13T02:23:19.704Z,16.68
2022-11-13T02:26:40.652Z,16.70
2022-11-13T02:30:16.386Z,16.70
2022-11-13T02:33:37.397Z,16.67
2022-11-13T02:36:57.702Z,16.66
2022-11-13T02:40:18.774Z,16.64
2022-11-13T02:43:39.068Z,16.63
2022-11-13T02:46:58.951Z,16.62
2022-11-13T02:50:19.132Z,16.60
2022-11-13T02:53:39.419Z,16.60
2022-11-13T02:56:59.794Z,16.59
2022-11-13T03:00:20.060Z,16.57
2022-11-13T03:03:57.044Z,16.57
2022-11-13T03:07:17.575Z,16.55
2022-11-13T03:10:37.434Z,16.53
2022-11-13T03:13:57.424Z,16.53
2022-11-13T03:17:17.339Z,16.53
2022-11-13T03:20:39.114Z,16.53
2022-11-13T03:23:59.566Z,16.52
2022-11-13T03:27:20.304Z,16.51
2022-11-13T03:30:40.425Z,16.51
2022-11-13T03:34:00.823Z,16.49
2022-11-13T03:37:21.192Z,16.50
2022-11-13T03:40:42.931Z,16.47
2022-11-13T03:44:03.140Z,16.47
2022-11-13T03:47:23.268Z,16.46
2022-11-13T03:50:45.727Z,16.46
2022-11-13T03:54:05.708Z,16.45
2022-11-13T03:57:25.819Z,16.43
2022-11-13T04:00:46.647Z,16.43
2022-11-13T04:04:06.528Z,16.42
2022-11-13T04:07:26.534Z,16.43
2022-11-13T04:10:47.190Z,16.41
2022-11-13T04:14:07.727Z,16.40
2022-11-13T04:17:27.703Z,16.38
2022-11-13T04:20:47.620Z,16.38
2022-11-13T04:24:07.770Z,16.38
2022-11-13T04:27:27.855Z,16.37
2022-11-13T04:30:47.930Z,16.37
2022-11-13T04:34:08.468Z,16.36
2022-11-13T04:37:28.477Z,16.35
2022-11-13T04:41:12.008Z,16.37
2022-11-13T04:44:31.965Z,16.35
2022-11-13T04:47:52.160Z,16.35
2022-11-13T04:51:12.971Z,16.36
2022-11-13T04:54:33.180Z,16.35
2022-11-13T04:57:55.464Z,16.35
2022-11-13T05:01:15.835Z,16.35
2022-11-13T05:04:36.077Z,16.35
2022-11-13T05:07:56.284Z,16.33
2022-11-13T05:11:16.119Z,16.32
2022-11-13T05:14:37.420Z,16.33
2022-11-13T05:17:57.659Z,16.32
2022-11-13T05:21:18.079Z,16.30
2022-11-13T05:24:38.475Z,16.30
2022-11-13T05:27:58.849Z,16.30
2022-11-13T05:31:19.037Z,16.29
2022-11-13T05:34:39.337Z,16.29
2022-11-13T05:38:03.020Z,16.29
2022-11-13T05:41:23.989Z,16.29
2022-11-13T05:44:44.361Z,16.28
2022-11-13T05:48:04.857Z,16.27
2022-11-13T05:51:34.498Z,16.28
2022-11-13T05:54:54.301Z,16.25
2022-11-13T05:58:14.339Z,16.26
2022-11-13T06:01:36.660Z,16.25
2022-11-13T06:04:56.880Z,16.25
2022-11-13T06:08:16.864Z,16.23
2022-11-13T06:11:36.873Z,16.23
2022-11-13T06:14:57.001Z,16.22
2022-11-13T06:18:26.288Z,16.24
2022-11-13T06:21:46.994Z,16.22
2022-11-13T06:25:07.444Z,16.21
2022-11-13T06:28:27.872Z,16.20
2022-11-13T06:31:48.258Z,16.19
2022-11-13T06:35:08.286Z,16.20
2022-11-13T06:38:37.227Z,16.20
2022-11-13T06:41:57.368Z,16.19
2022-11-13T06:45:17.851Z,16.18
2022-11-13T06:48:37.737Z,16.19
2022-11-13T06:51:57.703Z,16.17
2022-11-13T06:55:17.715Z,16.18
2022-11-13T06:58:38.204Z,16.17
2022-11-13T07:01:58.033Z,16.16
2022-11-13T07:05:18.155Z,16.16
2022-11-13T07:08:38.328Z,16.13
2022-11-13T07:11:58.350Z,16.12
2022-11-13T07:15:18.662Z,16.13
2022-11-13T07:18:39.075Z,16.13
2022-11-13T07:21:59.126Z,16.13
2022-11-13T07:25:18.920Z,16.14
2022-11-13T07:28:39.162Z,16.13
2022-11-13T07:31:59.168Z,16.13
2022-11-13T07:35:20.107Z,16.13
2022-11-13T07:38:40.230Z,16.12
2022-11-13T07:42:00.344Z,16.12
2022-11-13T07:45:20.556Z,16.11
2022-11-13T07:48:40.647Z,16.13
2022-11-13T07:52:00.881Z,16.13
2022-11-13T07:55:21.076Z,16.17
2022-11-13T07:58:41.542Z,16.20
2022-11-13T08:02:02.035Z,16.23
2022-11-13T08:05:22.334Z,16.25
2022-11-13T08:08:42.602Z,16.26
2022-11-13T08:12:02.745Z,16.26
2022-11-13T08:15:22.648Z,16.26
2022-11-13T08:18:42.677Z,16.29
2022-11-13T08:22:02.656Z,16.29
2022-11-13T08:25:22.520Z,16.32
2022-11-13T08:28:43.973Z,16.35
2022-11-13T08:32:04.877Z,16.37
2022-11-13T08:35:29.191Z,16.38
2022-11-13T08:38:49.788Z,16.44
2022-11-13T08:42:09.694Z,16.47
2022-11-13T08:45:31.177Z,16.51
2022-11-13T08:48:51.311Z,16.55
2022-11-13T08:52:11.540Z,16.57
2022-11-13T08:55:33.233Z,16.59
2022-11-13T08:58:53.442Z,16.61
2022-11-13T09:02:15.178Z,16.64
2022-11-13T09:05:35.155Z,16.65
2022-11-13T09:08:55.427Z,16.64
2022-11-13T09:12:16.041Z,16.65
2022-11-13T09:15:37.798Z,16.67
2022-11-13T09:18:57.822Z,16.67
2022-11-13T09:22:17.988Z,16.67
2022-11-13T09:25:38.369Z,16.68
2022-11-13T09:28:58.567Z,16.68
2022-11-13T09:32:19.027Z,16.70
2022-11-13T09:35:39.197Z,16.72
2022-11-13T09:39:00.719Z,16.76
2022-11-13T09:42:24.961Z,16.80
2022-11-13T09:45:45.556Z,16.82
2022-11-13T09:49:25.265Z,16.85
2022-11-13T09:52:46.204Z,16.85
2022-11-13T09:56:15.255Z,16.86
2022-11-13T09:59:56.645Z,16.89
2022-11-13T10:03:59.730Z,16.90
2022-11-13T10:07:35.396Z,16.91
2022-11-13T10:11:11.624Z,16.95
2022-11-13T10:14:38.649Z,16.97
2022-11-13T10:18:18.305Z,17.00
2022-11-13T10:21:44.343Z,17.07
2022-11-13T10:25:20.427Z,17.10
2022-11-13T10:28:50.619Z,17.11
2022-11-13T10:32:27.576Z,17.14
2022-11-13T10:36:03.927Z,17.17
2022-11-13T10:39:23.976Z,17.17
2022-11-13T10:42:44.451Z,17.18
2022-11-13T10:46:05.643Z,17.19
2022-11-13T10:49:29.055Z,17.20
2022-11-13T10:52:51.157Z,17.20
2022-11-13T10:56:32.952Z,17.23
2022-11-13T10:59:53.272Z,17.23
2022-11-13T11:03:19.476Z,17.27
2022-11-13T11:07:17.799Z,17.28
2022-11-13T11:10:21.567Z,17.29
2022-11-13T11:13:41.678Z,17.32
2022-11-13T11:17:04.150Z,17.34
2022-11-13T11:20:49.626Z,17.37
2022-11-13T11:24:13.925Z,17.37
2022-11-13T11:27:52.362Z,17.36
2022-11-13T11:31:21.795Z,17.37
2022-11-13T11:34:59.401Z,17.36
2022-11-13T11:38:27.167Z,17.34
2022-11-13T11:42:15.444Z,17.33
2022-11-13T11:45:40.733Z,17.31
2022-11-13T11:49:01.645Z,17.32
2022-11-13T11:52:56.471Z,17.35
2022-11-13T11:56:26.818Z,17.35
2022-11-13T12:00:10.691Z,17.38
2022-11-13T12:03:44.607Z,17.37
2022-11-13T12:07:10.855Z,17.37
2022-11-13T12:10:56.783Z,17.38
2022-11-13T12:14:38.256Z,17.36
2022-11-13T12:18:12.802Z,17.35
2022-11-13T12:22:06.671Z,17.31
2022-11-13T12:25:35.524Z,17.20
2022-11-13T12:29:19.559Z,17.14
2022-11-13T12:32:48.416Z,17.10
2022-11-13T12:36:11.905Z,17.11
2022-11-13T12:39:43.042Z,17.10
2022-11-13T12:43:41.763Z,17.09
2022-11-13T12:47:02.085Z,17.07
2022-11-13T12:50:32.736Z,17.06
2022-11-13T12:53:55.980Z,17.05
2022-11-13T12:57:28.632Z,17.05
2022-11-13T13:01:07.833Z,17.04
2022-11-13T13:04:46.604Z,17.03
2022-11-13T13:08:06.479Z,17.01
2022-11-13T13:11:49.432Z,17.00
2022-11-13T13:15:27.443Z,16.97
2022-11-13T13:18:47.779Z,16.93
2022-11-13T13:22:23.800Z,16.94
2022-11-13T13:25:43.708Z,16.91
2022-11-13T13:29:18.604Z,16.91
2022-11-13T13:32:58.881Z,16.92
2022-11-13T13:36:37.733Z,16.92
2022-11-13T13:40:19.754Z,16.92
2022-11-13T13:44:01.561Z,16.91
2022-11-13T13:47:27.907Z,16.92
2022-11-13T13:50:50.679Z,16.92
2022-11-13T13:54:18.695Z,16.92
2022-11-13T13:57:41.563Z,16.91
2022-11-13T14:01:18.848Z,16.91
2022-11-13T14:04:48.350Z,16.91
2022-11-13T14:08:19.459Z,16.92
2022-11-13T14:11:39.451Z,16.92
2022-11-13T14:14:59.655Z,16.92
2022-11-13T14:18:20.060Z,16.92
2022-11-13T14:21:40.645Z,16.93
2022-11-13T14:25:01.475Z,16.92
2022-11-13T14:28:25.392Z,16.93
2022-11-13T14:31:45.798Z,16.90
2022-11-13T14:35:07.967Z,16.90
2022-11-13T14:38:33.660Z,16.89
2022-11-13T14:41:57.376Z,16.88
2022-11-13T14:45:28.614Z,16.82
2022-11-13T14:48:55.672Z,16.66
2022-11-13T14:52:22.482Z,16.50
2022-11-13T14:55:54.919Z,16.41
2022-11-13T14:59:19.993Z,16.45
2022-11-13T15:02:40.263Z,16.53
2022-11-13T15:06:00.297Z,16.61
2022-11-13T15:09:21.087Z,16.68
2022-11-13T15:12:41.402Z,16.73
2022-11-13T15:16:01.840Z,16.77
2022-11-13T15:19:35.099Z,16.82
2022-11-13T15:22:57.180Z,16.83
2022-11-13T15:26:17.433Z,16.86
2022-11-13T15:29:37.527Z,16.89
2022-11-13T15:32:59.240Z,16.92
2022-11-13T15:36:19.367Z,16.93
2022-11-13T15:39:39.432Z,16.94
2022-11-13T15:43:01.222Z,16.96
2022-11-13T15:46:22.868Z,16.97
2022-11-13T15:49:56.640Z,16.97
2022-11-13T15:53:22.825Z,16.99
2022-11-13T15:56:43.806Z,16.97
2022-11-13T16:00:12.704Z,17.00
2022-11-13T16:03:39.342Z,16.97
2022-11-13T16:06:59.514Z,17.00
2022-11-13T16:10:21.014Z,16.99
2022-11-13T16:13:41.058Z,17.00
2022-11-13T16:17:01.364Z,17.00
2022-11-13T16:20:21.710Z,17.00
2022-11-13T16:23:42.214Z,17.03
2022-11-13T16:27:02.343Z,17.04
2022-11-13T16:30:26.416Z,17.05
2022-11-13T16:33:46.451Z,17.04
2022-11-13T16:37:16.496Z,17.06
2022-11-13T16:40:36.747Z,17.07
2022-11-13T16:43:56.864Z,17.05
2022-11-13T16:47:25.452Z,17.06
2022-11-13T16:50:45.787Z,17.05
2022-11-13T16:54:05.699Z,17.03
2022-11-13T16:57:25.615Z,17.02
2022-11-13T17:00:45.541Z,17.01
2022-11-13T17:04:05.561Z,17.00
2022-11-13T17:07:25.861Z,17.01
2022-11-13T17:10:46.284Z,17.02
2022-11-13T17:14:06.309Z,17.02
2022-11-13T17:17:26.210Z,17.03
2022-11-13T17:20:50.177Z,17.04
2022-11-13T17:24:10.301Z,17.04
2022-11-13T17:27:30.344Z,17.04
2022-11-13T17:30:54.963Z,17.03
2022-11-13T17:34:17.681Z,17.05
2022-11-13T17:37:37.554Z,17.03
2022-11-13T17:41:07.977Z,17.07
2022-11-13T17:44:28.082Z,17.06
2022-11-13T17:47:49.907Z,17.08
2022-11-13T17:51:15.233Z,17.12
2022-11-13T17:54:35.398Z,17.12
2022-11-13T17:57:58.925Z,17.15
2022-11-13T18:01:21.991Z,17.15
2022-11-13T18:04:42.526Z,17.15
2022-11-13T18:08:02.492Z,17.15
2022-11-13T18:11:25.916Z,17.15
2022-11-13T18:14:52.147Z,17.12
2022-11-13T18:18:12.292Z,17.11
2022-11-13T18:21:34.714Z,17.11
2022-11-13T18:24:55.103Z,17.09
2022-11-13T18:28:15.300Z,17.10
2022-11-13T18:31:35.496Z,17.10
2022-11-13T18:34:55.395Z,17.13
2022-11-13T18:38:15.631Z,17.14
2022-11-13T18:41:36.167Z,17.13
2022-11-13T18:44:57.305Z,17.14
2022-11-13T18:48:18.782Z,17.13
2022-11-13T18:51:38.968Z,17.13
2022-11-13T18:54:58.876Z,17.15
2022-11-13T18:58:19.012Z,17.17
2022-11-13T19:01:39.922Z,17.20
2022-11-13T19:05:00.324Z,17.21
2022-11-13T19:08:20.772Z,17.22
2022-11-13T19:11:42.029Z,17.24
2022-11-13T19:15:02.831Z,17.26
2022-11-13T19:18:22.940Z,17.27
2022-11-13T19:21:43.890Z,17.26
2022-11-13T19:25:04.045Z,17.26
2022-11-13T19:28:24.763Z,17.25
2022-11-13T19:31:46.603Z,17.26
2022-11-13T19:35:06.652Z,17.27
2022-11-13T19:38:27.669Z,17.29
2022-11-13T19:41:48.100Z,17.31
2022-11-13T19:45:08.644Z,17.33
2022-11-13T19:48:28.631Z,17.35
2022-11-13T19:51:48.571Z,17.34
2022-11-13T19:55:08.940Z,17.34
2022-11-13T19:58:29.440Z,17.34
2022-11-13T20:01:49.994Z,17.34
2022-11-13T20:05:10.145Z,17.32
2022-11-13T20:08:30.773Z,17.33
2022-11-13T20:11:51.375Z,17.36
2022-11-13T20:15:11.700Z,17.38
2022-11-13T20:18:32.123Z,17.40
2022-11-13T20:21:53.794Z,17.45
2022-11-13T20:25:13.783Z,17.45
2022-11-13T20:28:34.361Z,17.45
2022-11-13T20:31:54.388Z,17.45
2022-11-13T20:35:16.035Z,17.44
2022-11-13T20:38:36.525Z,17.46
2022-11-13T20:41:56.474Z,17.47
2022-11-13T20:45:16.542Z,17.50
2022-11-13T20:48:36.893Z,17.51
2022-11-13T20:51:57.440Z,17.55
2022-11-13T20:55:17.468Z,17.59
2022-11-13T20:58:37.557Z,17.62
2022-11-13T21:01:57.772Z,17.62
2022-11-13T21:05:18.209Z,17.62
2022-11-13T21:08:38.427Z,17.60
2022-11-13T21:11:58.422Z,17.60
2022-11-13T21:15:18.291Z,17.61
2022-11-13T21:18:38.389Z,17.58
2022-11-13T21:21:58.289Z,17.53
2022-11-13T21:25:19.562Z,17.50
2022-11-13T21:28:40.548Z,17.50
2022-11-13T21:32:01.046Z,17.49
2022-11-13T21:35:22.664Z,17.49
2022-11-13T21:38:43.457Z,17.50
2022-11-13T21:42:03.813Z,17.50
2022-11-13T21:45:24.040Z,17.48
2022-11-13T21:48:45.116Z,17.47
2022-11-13T21:52:05.436Z,17.46
2022-11-13T21:55:25.285Z,17.44
2022-11-13T21:58:45.426Z,17.42
2022-11-13T22:02:05.960Z,17.42
2022-11-13T22:05:26.351Z,17.39
2022-11-13T22:08:54.583Z,17.38
2022-11-13T22:12:15.093Z,17.36
2022-11-13T22:15:35.350Z,17.34
2022-11-13T22:18:56.857Z,17.34
2022-11-13T22:22:17.079Z,17.31
2022-11-13T22:25:36.848Z,17.29
2022-11-13T22:28:56.996Z,17.29
2022-11-13T22:32:17.202Z,17.26
2022-11-13T22:35:37.116Z,17.25
2022-11-13T22:38:58.474Z,17.23
2022-11-13T22:42:18.607Z,17.21
2022-11-13T22:45:38.445Z,17.18
2022-11-13T22:49:01.628Z,17.16
2022-11-13T22:52:21.844Z,17.14
2022-11-13T22:55:41.777Z,17.12
2022-11-13T22:59:04.024Z,17.10
2022-11-13T23:02:24.381Z,17.07
2022-11-13T23:05:44.414Z,17.04
2022-11-13T23:09:05.661Z,17.03
2022-11-13T23:12:27.224Z,17.01
2022-11-13T23:15:47.500Z,16.98
2022-11-13T23:19:07.592Z,16.97
2022-11-13T23:22:27.555Z,16.94
2022-11-13T23:25:47.573Z,16.94
2022-11-13T23:29:07.696Z,16.90
2022-11-13T23:32:27.815Z,16.90
2022-11-13T23:35:48.699Z,16.88
2022-11-13T23:39:09.018Z,16.87
2022-11-13T23:42:53.492Z,16.86
2022-11-13T23:46:09.219Z,16.84
2022-11-13T23:49:29.444Z,16.81
2022-11-13T23:52:49.584Z,16.80
2022-11-13T23:56:10.842Z,16.80
2022-11-13T23:59:31.076Z,16.79
